createdAt,value
2018-11-20T00:01:52.997Z,5.24
2018-11-20T00:04:43.606Z,5.33
2018-11-20T00:07:30.282Z,5.44
2018-11-20T00:10:12.146Z,5.35
2018-11-20T00:12:48.908Z,5.49
2018-11-20T00:15:36.064Z,5.37
2018-11-20T00:18:22.940Z,5.50
2018-11-20T00:21:13.237Z,5.44
2018-11-20T00:24:01.637Z,5.40
2018-11-20T00:27:01.746Z,5.43
2018-11-20T00:29:41.225Z,5.52
2018-11-20T00:32:31.849Z,5.56
2018-11-20T00:35:16.012Z,5.55
2018-11-20T00:37:57.228Z,5.47
2018-11-20T00:40:44.237Z,5.61
2018-11-20T00:43:35.245Z,5.56
2018-11-20T00:46:38.411Z,5.51
2018-11-20T00:49:25.066Z,5.53
2018-11-20T00:52:21.825Z,5.59
2018-11-20T00:54:58.777Z,5.51
2018-11-20T00:57:45.448Z,5.57
2018-11-20T01:00:32.140Z,5.60
2018-11-20T01:03:09.544Z,5.57
2018-11-20T01:06:05.688Z,5.59
2018-11-20T01:08:57.278Z,5.72
2018-11-20T01:11:44.145Z,5.59
2018-11-20T01:14:47.705Z,5.58
2018-11-20T01:17:30.269Z,5.51
2018-11-20T01:20:17.065Z,5.52
2018-11-20T01:23:08.216Z,5.51
2018-11-20T01:25:50.868Z,5.38
2018-11-20T01:28:39.225Z,5.36
2018-11-20T01:31:26.377Z,5.38
2018-11-20T01:34:12.996Z,5.45
2018-11-20T01:37:00.377Z,5.42
2018-11-20T01:39:37.498Z,5.38
2018-11-20T01:42:25.631Z,5.34
2018-11-20T01:45:23.345Z,5.31
2018-11-20T01:48:06.606Z,5.47
2018-11-20T01:51:03.837Z,5.41
2018-11-20T01:53:43.964Z,5.49
2018-11-20T01:56:34.097Z,5.41
2018-11-20T01:59:21.072Z,5.41
2018-11-20T02:02:24.222Z,5.44
2018-11-20T02:05:10.976Z,5.50
2018-11-20T02:07:57.812Z,5.40
2018-11-20T02:10:45.916Z,5.39
2018-11-20T02:14:00.521Z,5.37
2018-11-20T02:16:47.960Z,5.33
2018-11-20T02:19:34.752Z,5.35
2018-11-20T02:22:16.258Z,5.52
2018-11-20T02:25:04.623Z,5.48
2018-11-20T02:28:01.891Z,5.50
2018-11-20T02:30:47.666Z,5.47
2018-11-20T02:33:47.301Z,5.43
2018-11-20T02:36:34.168Z,5.48
2018-11-20T02:39:14.926Z,5.50
2018-11-20T02:42:08.996Z,5.49
2018-11-20T02:44:58.657Z,5.55
2018-11-20T02:47:45.624Z,5.61
2018-11-20T02:50:32.753Z,5.56
2018-11-20T02:53:19.352Z,5.52
2018-11-20T02:55:57.683Z,5.55
2018-11-20T02:58:51.648Z,5.54
2018-11-20T03:01:54.721Z,5.61
2018-11-20T03:04:32.746Z,5.61
2018-11-20T03:07:20.830Z,5.58
2018-11-20T03:10:24.093Z,5.62
2018-11-20T03:13:14.811Z,5.66
2018-11-20T03:16:03.064Z,5.66
2018-11-20T03:18:42.571Z,5.64
2018-11-20T03:21:30.692Z,5.67
2018-11-20T03:24:18.761Z,5.67
2018-11-20T03:27:05.901Z,5.74
2018-11-20T03:30:38.913Z,5.62
2018-11-20T03:33:17.500Z,5.61
2018-11-20T03:36:03.926Z,5.51
2018-11-20T03:38:52.457Z,5.51
2018-11-20T03:41:43.252Z,5.55
2018-11-20T03:44:49.417Z,5.56
2018-11-20T03:47:40.010Z,5.64
2018-11-20T03:50:28.120Z,5.54
2018-11-20T03:53:06.691Z,5.57
2018-11-20T03:55:44.985Z,5.61
2018-11-20T03:58:39.636Z,5.65
2018-11-20T04:01:30.820Z,5.59
2018-11-20T04:04:08.449Z,5.58
2018-11-20T04:06:49.435Z,5.58
2018-11-20T04:09:26.696Z,5.63
2018-11-20T04:12:27.084Z,5.68
2018-11-20T04:15:18.138Z,5.58
2018-11-20T04:18:09.308Z,5.58
2018-11-20T04:20:56.280Z,5.46
2018-11-20T04:23:35.069Z,5.47
2018-11-20T04:26:23.293Z,5.48
2018-11-20T04:29:14.770Z,5.36
2018-11-20T04:32:18.628Z,5.40
2018-11-20T04:35:05.193Z,5.36
2018-11-20T04:37:43.973Z,5.39
2018-11-20T04:40:38.093Z,5.35
2018-11-20T04:43:25.072Z,5.42
2018-11-20T04:46:28.553Z,5.35
2018-11-20T04:49:14.156Z,5.24
2018-11-20T04:52:05.578Z,5.25
2018-11-20T04:54:49.576Z,5.32
2018-11-20T04:57:36.435Z,5.48
2018-11-20T05:00:18.549Z,5.40
2018-11-20T05:03:06.199Z,5.32
2018-11-20T05:06:12.501Z,5.38
2018-11-20T05:09:00.649Z,5.35
2018-11-20T05:12:04.157Z,5.34
2018-11-20T05:15:07.173Z,5.36
2018-11-20T05:17:59.301Z,5.34
2018-11-20T05:20:59.724Z,5.40
2018-11-20T05:23:47.002Z,5.38
2018-11-20T05:26:28.355Z,5.41
2018-11-20T05:29:15.033Z,5.40
2018-11-20T05:32:01.158Z,5.47
2018-11-20T05:34:52.005Z,5.41
2018-11-20T05:37:52.246Z,5.34
2018-11-20T05:40:32.363Z,5.44
2018-11-20T05:43:19.349Z,5.35
2018-11-20T05:46:07.463Z,5.45
2018-11-20T05:48:58.184Z,5.39
2018-11-20T05:51:44.943Z,5.46
2018-11-20T05:54:32.412Z,5.52
2018-11-20T05:57:26.576Z,5.51
2018-11-20T06:00:17.939Z,5.51
2018-11-20T06:03:13.667Z,5.71
2018-11-20T06:05:56.507Z,5.60
2018-11-20T06:08:43.241Z,5.66
2018-11-20T06:11:30.145Z,5.57
2018-11-20T06:14:18.244Z,5.51
2018-11-20T06:17:09.313Z,5.54
2018-11-20T06:20:03.239Z,5.61
2018-11-20T06:22:50.536Z,5.67
2018-11-20T06:25:38.004Z,5.69
2018-11-20T06:28:31.957Z,5.67
2018-11-20T06:31:26.261Z,5.66
2018-11-20T06:34:18.416Z,5.76
2018-11-20T06:37:06.937Z,5.74
2018-11-20T06:39:53.704Z,5.75
2018-11-20T06:42:34.935Z,5.74
2018-11-20T06:45:24.213Z,5.74
2018-11-20T06:48:15.206Z,5.79
2018-11-20T06:51:01.874Z,5.82
2018-11-20T06:53:43.523Z,5.90
2018-11-20T06:56:29.963Z,5.82
2018-11-20T06:59:23.806Z,5.75
2018-11-20T07:02:15.224Z,5.79
2018-11-20T07:05:06.890Z,5.76
2018-11-20T07:07:53.864Z,5.90
2018-11-20T07:10:40.648Z,5.84
2018-11-20T07:13:40.378Z,5.73
2018-11-20T07:16:42.412Z,5.79
2018-11-20T07:19:33.364Z,5.83
2018-11-20T07:22:13.956Z,5.87
2018-11-20T07:25:02.073Z,5.94
2018-11-20T07:27:59.389Z,6.00
2018-11-20T07:30:53.922Z,6.13
2018-11-20T07:33:37.594Z,6.03
2018-11-20T07:36:24.691Z,6.05
2018-11-20T07:39:11.348Z,6.09
2018-11-20T07:42:08.301Z,6.11
2018-11-20T07:44:56.374Z,6.04
2018-11-20T07:47:40.538Z,6.09
2018-11-20T07:50:37.619Z,6.12
2018-11-20T07:53:23.905Z,6.16
2018-11-20T07:56:10.837Z,6.30
2018-11-20T07:58:57.272Z,6.15
2018-11-20T08:01:48.294Z,6.13
2018-11-20T08:04:36.445Z,6.14
2018-11-20T08:07:20.197Z,6.23
2018-11-20T08:10:07.317Z,6.25
2018-11-20T08:12:56.041Z,6.35
2018-11-20T08:15:47.083Z,6.24
2018-11-20T08:18:23.140Z,6.26
2018-11-20T08:21:20.128Z,6.40
2018-11-20T08:24:09.563Z,6.49
2018-11-20T08:26:56.469Z,6.39
2018-11-20T08:29:34.521Z,6.50
2018-11-20T08:32:21.449Z,6.47
2018-11-20T08:35:08.595Z,6.59
2018-11-20T08:38:11.713Z,6.61
2018-11-20T08:40:50.777Z,6.68
2018-11-20T08:43:48.540Z,6.80
2018-11-20T08:46:31.526Z,6.98
2018-11-20T08:49:19.885Z,6.89
2018-11-20T08:52:05.909Z,6.92
2018-11-20T08:54:55.218Z,6.93
2018-11-20T08:57:55.358Z,6.98
2018-11-20T09:00:41.086Z,6.98
2018-11-20T09:03:21.068Z,6.99
2018-11-20T09:06:15.138Z,7.11
2018-11-20T09:09:05.790Z,7.05
2018-11-20T09:11:52.735Z,7.18
2018-11-20T09:14:52.794Z,7.10
2018-11-20T09:17:52.787Z,7.12
2018-11-20T09:20:52.711Z,7.20
2018-11-20T09:23:33.990Z,7.30
2018-11-20T09:26:22.056Z,7.26
2018-11-20T09:29:23.701Z,7.36
2018-11-20T09:32:07.731Z,7.48
2018-11-20T09:34:48.484Z,7.69
2018-11-20T09:37:42.720Z,7.57
2018-11-20T09:41:05.207Z,7.63
2018-11-20T09:44:01.001Z,7.59
2018-11-20T09:46:47.850Z,7.58
2018-11-20T09:49:35.931Z,7.61
2018-11-20T09:52:27.300Z,7.62
2018-11-20T09:55:13.932Z,7.70
2018-11-20T09:58:00.538Z,7.78
2018-11-20T10:00:47.493Z,7.86
2018-11-20T10:03:37.263Z,7.82
2018-11-20T10:06:40.249Z,7.83
2018-11-20T10:09:28.073Z,7.87
2018-11-20T10:12:22.621Z,7.94
2018-11-20T10:15:22.404Z,8.04
2018-11-20T10:18:06.792Z,7.98
2018-11-20T10:20:50.697Z,8.13
2018-11-20T10:23:35.731Z,7.96
2018-11-20T10:26:23.856Z,8.03
2018-11-20T10:29:18.024Z,8.19
2018-11-20T10:32:15.013Z,8.33
2018-11-20T10:35:08.553Z,8.47
2018-11-20T10:37:56.711Z,8.49
2018-11-20T10:40:50.647Z,8.47
2018-11-20T10:43:37.475Z,8.57
2018-11-20T10:46:40.770Z,8.71
2018-11-20T10:49:29.562Z,8.74
2018-11-20T10:52:29.609Z,8.80
2018-11-20T10:55:20.251Z,8.71
2018-11-20T10:58:14.100Z,8.69
2018-11-20T11:01:01.076Z,8.73
2018-11-20T11:03:48.245Z,8.71
2018-11-20T11:06:36.541Z,8.57
2018-11-20T11:09:27.200Z,8.50
2018-11-20T11:12:09.271Z,8.44
2018-11-20T11:14:56.436Z,8.37
2018-11-20T11:17:47.401Z,8.46
2018-11-20T11:20:34.405Z,8.26
2018-11-20T11:23:25.230Z,8.29
2018-11-20T11:26:12.138Z,8.13
2018-11-20T11:29:12.522Z,8.08
2018-11-20T11:32:00.661Z,8.02
2018-11-20T11:34:48.825Z,8.07
2018-11-20T11:37:31.406Z,8.03
2018-11-20T11:40:07.443Z,8.13
2018-11-20T11:42:55.541Z,8.07
2018-11-20T11:46:02.290Z,8.03
2018-11-20T11:48:51.113Z,8.00
2018-11-20T11:51:37.015Z,7.86
2018-11-20T11:54:19.314Z,7.83
2018-11-20T11:57:20.099Z,7.78
2018-11-20T12:00:07.754Z,7.73
2018-11-20T12:06:01.056Z,7.66
2018-11-20T12:08:48.207Z,7.62
2018-11-20T12:11:35.165Z,7.62
2018-11-20T12:14:21.946Z,7.59
2018-11-20T12:17:18.930Z,7.59
2018-11-20T12:20:19.599Z,7.58
2018-11-20T12:23:06.315Z,7.61
2018-11-20T12:25:52.073Z,7.65
2018-11-20T12:28:55.868Z,7.59
2018-11-20T12:31:32.998Z,7.64
2018-11-20T12:34:16.747Z,7.59
2018-11-20T12:36:58.822Z,7.56
2018-11-20T12:39:59.523Z,7.55
2018-11-20T12:42:46.500Z,7.54
2018-11-20T12:45:37.452Z,7.54
2018-11-20T12:48:24.302Z,7.48
2018-11-20T12:51:12.474Z,7.46
2018-11-20T12:53:59.709Z,7.42
2018-11-20T12:56:46.451Z,7.45
2018-11-20T12:59:40.593Z,7.42
2018-11-20T13:02:27.777Z,7.39
2018-11-20T13:05:34.000Z,7.39
2018-11-20T13:08:22.636Z,7.38
2018-11-20T13:11:09.397Z,7.36
2018-11-20T13:13:56.614Z,7.40
2018-11-20T13:16:50.925Z,7.44
2018-11-20T13:19:41.909Z,7.36
2018-11-20T13:22:37.544Z,7.41
2018-11-20T13:25:24.414Z,7.44
2018-11-20T13:28:25.066Z,7.36
2018-11-20T13:31:12.320Z,7.34
2018-11-20T13:34:00.457Z,7.35
2018-11-20T13:36:47.266Z,7.34
2018-11-20T13:39:34.522Z,7.26
2018-11-20T13:42:37.493Z,7.06
2018-11-20T13:45:23.514Z,7.06
2018-11-20T13:48:10.604Z,7.11
2018-11-20T13:51:04.823Z,7.19
2018-11-20T13:54:02.090Z,7.28
2018-11-20T13:56:59.787Z,7.27
2018-11-20T13:59:46.506Z,7.21
2018-11-20T14:02:47.065Z,7.20
2018-11-20T14:05:38.530Z,7.18
2018-11-20T14:08:36.583Z,7.30
2018-11-20T14:11:27.610Z,7.24
2018-11-20T14:14:03.582Z,7.27
2018-11-20T14:16:50.242Z,7.28
2018-11-20T14:19:31.105Z,7.32
2018-11-20T14:22:19.303Z,7.33
2018-11-20T14:25:07.667Z,7.24
2018-11-20T14:27:58.850Z,7.30
2018-11-20T14:30:55.962Z,7.27
2018-11-20T14:33:42.687Z,7.31
2018-11-20T14:36:29.626Z,7.33
2018-11-20T14:39:32.696Z,7.34
2018-11-20T14:42:21.716Z,7.36
2018-11-20T14:45:08.336Z,7.39
2018-11-20T14:47:56.582Z,7.38
2018-11-20T14:50:47.591Z,7.36
2018-11-20T14:53:34.594Z,7.48
2018-11-20T14:56:13.483Z,7.45
2018-11-20T14:58:57.879Z,7.42
2018-11-20T15:01:44.646Z,7.47
2018-11-20T15:04:45.129Z,7.48
2018-11-20T15:07:23.214Z,7.38
2018-11-20T15:10:11.456Z,7.38
2018-11-20T15:12:49.367Z,7.46
2018-11-20T15:15:38.436Z,7.41
2018-11-20T15:18:24.912Z,7.49
2018-11-20T15:21:25.339Z,7.38
2018-11-20T15:24:12.742Z,7.39
2018-11-20T15:26:59.597Z,7.38
2018-11-20T15:29:51.034Z,7.37
2018-11-20T15:32:33.425Z,7.36
2018-11-20T15:35:22.776Z,7.39
2018-11-20T15:38:05.150Z,7.44
2018-11-20T15:40:59.154Z,7.48
2018-11-20T15:44:05.646Z,7.53
2018-11-20T15:46:52.457Z,7.55
2018-11-20T15:49:44.562Z,7.55
2018-11-20T15:52:31.905Z,7.49
2018-11-20T15:55:28.641Z,7.50
2018-11-20T15:58:15.470Z,7.50
2018-11-20T16:01:02.146Z,7.48
2018-11-20T16:03:49.542Z,7.46
2018-11-20T16:06:30.352Z,7.53
2018-11-20T16:09:17.257Z,7.44
2018-11-20T16:12:20.406Z,7.45
2018-11-20T16:15:17.506Z,7.34
2018-11-20T16:18:04.031Z,7.36
2018-11-20T16:20:46.315Z,7.42
2018-11-20T16:23:25.814Z,7.47
2018-11-20T16:26:10.334Z,7.49
2018-11-20T16:29:10.495Z,7.54
2018-11-20T16:31:57.461Z,7.57
2018-11-20T16:34:56.143Z,7.58
2018-11-20T16:37:43.698Z,7.57
2018-11-20T16:40:30.530Z,7.57
2018-11-20T16:43:27.740Z,7.53
2018-11-20T16:46:14.660Z,7.55
2018-11-20T16:49:05.918Z,7.55
2018-11-20T16:51:56.593Z,7.56
2018-11-20T16:54:40.655Z,7.59
2018-11-20T16:57:27.687Z,7.54
2018-11-20T17:00:14.265Z,7.53
2018-11-20T17:02:54.679Z,7.45
2018-11-20T17:05:57.655Z,7.37
2018-11-20T17:09:00.827Z,7.39
2018-11-20T17:11:39.115Z,7.40
2018-11-20T17:14:24.766Z,7.48
2018-11-20T17:17:21.770Z,7.48
2018-11-20T17:20:15.866Z,7.47
2018-11-20T17:23:09.858Z,7.47
2018-11-20T17:25:58.238Z,7.51
2018-11-20T17:28:39.863Z,7.54
2018-11-20T17:31:34.321Z,7.59
2018-11-20T17:34:13.681Z,7.57
2018-11-20T17:37:00.477Z,7.57
2018-11-20T17:40:08.060Z,7.58
2018-11-20T17:43:14.338Z,7.60
2018-11-20T17:45:53.990Z,7.50
2018-11-20T17:48:51.282Z,7.50
2018-11-20T17:51:57.451Z,7.48
2018-11-20T17:54:34.774Z,7.48
2018-11-20T17:57:38.025Z,7.50
2018-11-20T18:00:31.396Z,7.55
2018-11-20T18:03:09.020Z,7.57
2018-11-20T18:06:04.081Z,7.57
2018-11-20T18:09:00.843Z,7.58
2018-11-20T18:11:49.437Z,7.55
2018-11-20T18:14:37.819Z,7.57
2018-11-20T18:17:25.018Z,7.56
2018-11-20T18:20:04.759Z,7.57
2018-11-20T18:22:52.827Z,7.61
2018-11-20T18:25:40.427Z,7.57
2018-11-20T18:28:31.451Z,7.60
2018-11-20T18:31:38.046Z,7.63
2018-11-20T18:34:28.673Z,7.62
2018-11-20T18:37:29.339Z,7.57
2018-11-20T18:40:19.192Z,7.59
2018-11-20T18:42:56.202Z,7.58
2018-11-20T18:45:43.062Z,7.61
2018-11-20T18:48:29.730Z,7.67
2018-11-20T18:51:13.682Z,7.73
2018-11-20T18:54:00.637Z,7.58
2018-11-20T18:57:06.797Z,7.60
2018-11-20T19:00:13.266Z,7.59
2018-11-20T19:02:57.528Z,7.57
2018-11-20T19:05:43.999Z,7.57
2018-11-20T19:08:30.958Z,7.59
2018-11-20T19:11:27.988Z,7.49
2018-11-20T19:14:34.601Z,7.38
2018-11-20T19:17:56.934Z,7.28
2018-11-20T19:20:44.648Z,7.27
2018-11-20T19:23:32.018Z,7.26
2018-11-20T19:26:28.366Z,7.45
2018-11-20T19:29:26.568Z,7.32
2018-11-20T19:32:12.591Z,7.20
2018-11-20T19:35:01.544Z,7.12
2018-11-20T19:38:07.026Z,7.14
2018-11-20T19:40:53.666Z,7.12
2018-11-20T19:43:40.022Z,7.13
2018-11-20T19:46:39.500Z,7.16
2018-11-20T19:49:21.160Z,7.13
2018-11-20T19:52:04.347Z,7.14
2018-11-20T19:54:58.139Z,7.19
2018-11-20T19:57:45.483Z,7.17
2018-11-20T20:00:32.910Z,7.18
2018-11-20T20:03:12.093Z,7.23
2018-11-20T20:06:05.552Z,7.32
2018-11-20T20:08:56.379Z,7.38
2018-11-20T20:11:42.628Z,7.40
2018-11-20T20:14:39.378Z,7.38
2018-11-20T20:17:26.485Z,7.32
2018-11-20T20:20:12.710Z,7.34
2018-11-20T20:22:47.342Z,7.36
2018-11-20T20:25:34.623Z,7.36
2018-11-20T20:28:33.902Z,7.43
2018-11-20T20:31:21.462Z,7.42
2018-11-20T20:34:04.238Z,7.40
2018-11-20T20:36:50.132Z,7.40
2018-11-20T20:39:46.811Z,7.37
2018-11-20T20:42:25.748Z,7.35
2018-11-20T20:45:22.107Z,7.35
2018-11-20T20:48:08.002Z,7.41
2018-11-20T20:50:55.275Z,7.43
2018-11-20T20:53:48.851Z,7.30
2018-11-20T20:56:35.424Z,7.27
2018-11-20T20:59:25.832Z,7.17
2018-11-20T21:02:28.321Z,7.04
2018-11-20T21:05:04.519Z,6.91
2018-11-20T21:07:47.094Z,6.82
2018-11-20T21:10:34.402Z,6.74
2018-11-20T21:13:20.023Z,6.69
2018-11-20T21:16:10.158Z,6.65
2018-11-20T21:18:56.620Z,6.62
2018-11-20T21:21:42.654Z,6.56
2018-11-20T21:24:35.567Z,6.47
2018-11-20T21:27:16.763Z,6.40
2018-11-20T21:30:07.459Z,6.36
2018-11-20T21:32:53.460Z,6.39
2018-11-20T21:35:39.168Z,6.39
2018-11-20T21:38:25.045Z,6.35
2018-11-20T21:41:27.747Z,6.30
2018-11-20T21:44:09.136Z,6.23
2018-11-20T21:46:56.484Z,6.21
2018-11-20T21:49:42.367Z,6.22
2018-11-20T21:52:28.101Z,6.21
2018-11-20T21:55:30.882Z,6.15
2018-11-20T21:58:17.028Z,6.10
2018-11-20T22:01:24.627Z,6.10
2018-11-20T22:04:15.235Z,6.05
2018-11-20T22:07:11.830Z,6.04
2018-11-20T22:10:17.878Z,5.99
2018-11-20T22:13:04.208Z,5.97
2018-11-20T22:16:07.992Z,5.98
2018-11-20T22:19:01.091Z,5.90
2018-11-20T22:22:00.667Z,5.86
2018-11-20T22:24:47.959Z,5.91
2018-11-20T22:27:44.567Z,5.85
2018-11-20T22:30:32.767Z,5.85
2018-11-20T22:33:19.014Z,5.80
2018-11-20T22:36:05.159Z,5.78
2018-11-20T22:38:51.319Z,5.72
2018-11-20T22:41:38.622Z,5.69
2018-11-20T22:44:19.668Z,5.66
2018-11-20T22:47:01.908Z,5.65
2018-11-20T22:50:02.050Z,5.65
2018-11-20T22:52:46.338Z,5.67
2018-11-20T22:55:42.631Z,5.68
2018-11-20T22:58:21.930Z,5.68
2018-11-20T23:01:05.663Z,5.68
2018-11-20T23:03:51.998Z,5.68
2018-11-20T23:06:53.294Z,5.68
2018-11-20T23:09:21.475Z,5.63
2018-11-20T23:11:49.688Z,5.58
2018-11-20T23:14:18.177Z,5.56
2018-11-20T23:16:46.695Z,5.55
2018-11-20T23:19:14.863Z,5.59
2018-11-20T23:21:43.067Z,5.54
2018-11-20T23:24:14.151Z,5.57
2018-11-20T23:26:42.727Z,5.49
2018-11-20T23:29:11.087Z,5.46
2018-11-20T23:31:39.230Z,5.46
2018-11-20T23:34:07.526Z,5.45
2018-11-20T23:36:36.129Z,5.43
2018-11-20T23:39:06.773Z,5.43
2018-11-20T23:41:35.442Z,5.41
2018-11-20T23:44:03.711Z,5.40
2018-11-20T23:46:31.903Z,5.37
2018-11-20T23:49:00.074Z,5.38
2018-11-20T23:51:28.487Z,5.36
2018-11-20T23:53:56.997Z,5.34
2018-11-20T23:56:25.410Z,5.33
2018-11-20T23:58:53.859Z,5.32
